createdAt,value
2022-10-21T00:04:07.400Z,5.15
2022-10-21T00:09:10.360Z,3.85
2022-10-21T00:14:14.483Z,3.10
2022-10-21T00:19:18.731Z,4.53
2022-10-21T00:24:22.349Z,5.00
2022-10-21T00:29:32.312Z,5.25
2022-10-21T00:34:39.415Z,3.30
2022-10-21T00:39:43.116Z,6.15
2022-10-21T00:45:02.596Z,6.00
2022-10-21T00:50:08.153Z,6.43
2022-10-21T00:55:11.237Z,5.15
2022-10-21T01:00:14.881Z,6.23
2022-10-21T01:05:20.083Z,5.97
2022-10-21T01:10:28.448Z,6.43
2022-10-21T01:15:36.103Z,6.40
2022-10-21T01:20:49.926Z,6.65
2022-10-21T01:26:04.821Z,6.50
2022-10-21T01:31:11.781Z,6.40
2022-10-21T01:36:24.036Z,6.40
2022-10-21T01:41:30.036Z,7.03
2022-10-21T01:46:36.019Z,5.90
2022-10-21T01:51:39.326Z,5.55
2022-10-21T01:56:43.444Z,5.22
2022-10-21T02:01:48.699Z,5.57
2022-10-21T02:06:51.575Z,5.47
2022-10-21T02:11:57.243Z,5.90
2022-10-21T02:17:01.598Z,5.72
2022-10-21T02:22:05.578Z,5.35
2022-10-21T02:27:08.423Z,5.88
2022-10-21T02:32:17.721Z,6.10
2022-10-21T02:37:27.344Z,5.20
2022-10-21T02:42:37.210Z,5.47
2022-10-21T02:47:41.760Z,5.28
2022-10-21T02:52:44.969Z,3.40
2022-10-21T02:57:47.682Z,5.97
2022-10-21T03:02:51.881Z,6.60
2022-10-21T03:07:54.673Z,6.03
2022-10-21T03:12:57.552Z,5.07
2022-10-21T03:18:02.037Z,6.07
2022-10-21T03:23:05.005Z,5.75
2022-10-21T03:28:07.708Z,5.37
2022-10-21T03:33:11.721Z,5.13
2022-10-21T03:38:14.637Z,4.88
2022-10-21T03:43:17.696Z,4.80
2022-10-21T03:48:21.731Z,3.60
2022-10-21T03:53:41.812Z,3.58
2022-10-21T03:58:46.202Z,4.00
2022-10-21T04:03:50.420Z,4.17
2022-10-21T04:08:53.239Z,5.25
2022-10-21T04:13:56.329Z,5.28
2022-10-21T04:19:00.541Z,5.40
2022-10-21T04:24:03.360Z,5.22
2022-10-21T04:29:06.650Z,5.20
2022-10-21T04:34:10.775Z,5.25
2022-10-21T04:39:14.315Z,4.95
2022-10-21T04:44:17.032Z,5.03
2022-10-21T04:49:21.224Z,5.05
2022-10-21T04:54:24.114Z,4.63
2022-10-21T04:59:27.083Z,4.50
2022-10-21T05:04:31.831Z,5.53
2022-10-21T05:09:35.385Z,5.07
2022-10-21T05:14:42.840Z,5.18
2022-10-21T05:19:46.761Z,4.90
2022-10-21T05:29:51.913Z,4.95
2022-10-21T05:34:56.164Z,5.32
2022-10-21T05:39:59.042Z,5.07
2022-10-21T05:45:01.799Z,5.22
2022-10-21T05:50:06.214Z,6.00
2022-10-21T05:55:09.738Z,5.30
2022-10-21T06:00:13.587Z,6.55
2022-10-21T06:05:18.067Z,6.03
2022-10-21T06:10:22.553Z,6.53
2022-10-21T06:15:27.981Z,6.05
2022-10-21T06:20:32.107Z,6.20
2022-10-21T06:25:34.718Z,5.43
2022-10-21T06:30:37.772Z,6.20
2022-10-21T06:35:41.951Z,6.30
2022-10-21T06:40:44.767Z,5.57
2022-10-21T06:45:47.679Z,5.57
2022-10-21T06:50:51.685Z,6.33
2022-10-21T06:56:01.603Z,6.55
2022-10-21T07:01:16.519Z,5.93
2022-10-21T07:11:38.229Z,6.03
2022-10-21T07:16:41.145Z,6.07
2022-10-21T07:21:46.372Z,6.17
2022-10-21T07:26:49.165Z,5.75
2022-10-21T07:31:52.097Z,5.82
2022-10-21T07:36:56.705Z,5.78
2022-10-21T07:41:59.564Z,4.72
2022-10-21T07:47:02.396Z,5.30
2022-10-21T07:52:06.573Z,4.93
2022-10-21T07:57:09.404Z,5.75
2022-10-21T08:02:14.426Z,5.10
2022-10-21T08:07:18.763Z,4.82
2022-10-21T08:12:21.533Z,5.65
2022-10-21T08:17:24.168Z,5.00
2022-10-21T08:22:28.675Z,5.10
2022-10-21T08:27:31.433Z,4.88
2022-10-21T08:32:34.459Z,5.43
2022-10-21T08:42:44.355Z,4.25
2022-10-21T08:47:49.115Z,4.68
2022-10-21T08:52:54.072Z,4.95
2022-10-21T08:57:58.413Z,4.60
2022-10-21T09:03:11.749Z,4.32
2022-10-21T09:13:22.033Z,4.78
2022-10-21T09:18:30.352Z,4.63
2022-10-21T09:23:43.791Z,4.78
2022-10-21T09:28:48.732Z,4.57
2022-10-21T09:33:54.687Z,4.90
2022-10-21T09:38:58.698Z,5.22
2022-10-21T09:44:02.650Z,6.43
2022-10-21T09:54:30.833Z,6.25
2022-10-21T09:59:37.464Z,6.68
2022-10-21T10:04:40.378Z,7.22
2022-10-21T10:09:46.917Z,7.70
2022-10-21T10:14:51.347Z,7.32
2022-10-21T10:20:24.078Z,7.65
2022-10-21T10:25:30.761Z,7.47
2022-10-21T10:30:38.680Z,7.72
2022-10-21T10:35:48.743Z,6.07
2022-10-21T10:40:55.189Z,7.00
2022-10-21T10:46:03.557Z,8.15
2022-10-21T10:51:10.346Z,7.15
2022-10-21T10:56:19.500Z,7.20
2022-10-21T11:01:26.117Z,6.05
2022-10-21T11:06:33.720Z,7.45
2022-10-21T11:11:37.954Z,7.03
2022-10-21T11:16:59.571Z,6.90
2022-10-21T11:22:08.852Z,6.57
2022-10-21T11:27:18.219Z,5.82
2022-10-21T11:32:28.273Z,6.47
2022-10-21T11:37:39.255Z,6.13
2022-10-21T11:42:43.882Z,5.80
2022-10-21T11:47:54.807Z,5.90
2022-10-21T11:53:12.401Z,5.68
2022-10-21T11:58:28.085Z,5.55
2022-10-21T12:03:48.505Z,4.60
2022-10-21T12:08:54.917Z,2.28
2022-10-21T12:13:59.449Z,5.00
2022-10-21T12:19:05.733Z,2.65
2022-10-21T12:24:15.143Z,3.88
2022-10-21T12:29:21.454Z,3.10
2022-10-21T12:34:26.577Z,3.78
2022-10-21T12:39:47.864Z,3.10
2022-10-21T12:44:51.218Z,4.13
2022-10-21T12:50:24.065Z,3.85
2022-10-21T12:55:28.455Z,3.70
2022-10-21T13:00:51.641Z,3.30
2022-10-21T13:06:02.300Z,4.28
2022-10-21T13:11:20.991Z,3.03
2022-10-21T13:16:35.584Z,2.90
2022-10-21T13:21:40.701Z,2.00
2022-10-21T13:26:47.941Z,2.95
2022-10-21T13:32:08.499Z,2.05
2022-10-21T13:37:15.867Z,1.65
2022-10-21T13:42:20.688Z,2.58
2022-10-21T13:47:31.042Z,2.08
2022-10-21T13:52:35.029Z,2.70
2022-10-21T13:57:37.944Z,2.40
2022-10-21T14:02:47.340Z,2.85
2022-10-21T14:07:51.626Z,2.08
2022-10-21T14:12:54.413Z,2.60
2022-10-21T14:17:58.989Z,1.90
2022-10-21T14:23:04.281Z,1.90
2022-10-21T14:28:07.547Z,2.17
2022-10-21T14:33:15.286Z,1.20
2022-10-21T14:38:28.239Z,1.90
2022-10-21T14:43:33.589Z,1.43
2022-10-21T14:48:38.686Z,1.85
2022-10-21T14:53:46.973Z,1.58
2022-10-21T14:58:53.412Z,2.08
2022-10-21T15:03:57.164Z,1.40
2022-10-21T15:14:08.439Z,1.73
2022-10-21T15:19:15.402Z,1.77
2022-10-21T15:24:19.485Z,1.70
2022-10-21T15:29:34.264Z,0.65
2022-10-21T15:34:37.077Z,1.00
2022-10-21T15:39:39.998Z,1.80
2022-10-21T15:44:47.899Z,1.10
2022-10-21T15:49:50.702Z,2.35
2022-10-21T15:54:54.769Z,1.70
2022-10-21T15:59:59.405Z,1.58
2022-10-21T16:05:02.314Z,2.00
2022-10-21T16:10:12.840Z,1.60
2022-10-21T16:15:20.485Z,1.25
2022-10-21T16:20:24.187Z,1.60
2022-10-21T16:25:26.938Z,1.75
2022-10-21T16:30:33.584Z,1.73
2022-10-21T16:35:37.964Z,1.48
2022-10-21T16:40:40.607Z,1.20
2022-10-21T16:45:45.205Z,1.13
2022-10-21T16:50:48.407Z,1.88
2022-10-21T16:55:51.017Z,1.65
2022-10-21T17:00:55.006Z,1.50
2022-10-21T17:05:57.671Z,2.67
2022-10-21T17:11:00.102Z,1.73
2022-10-21T17:16:04.435Z,2.20
2022-10-21T17:21:07.592Z,2.80
2022-10-21T17:26:10.407Z,2.25
2022-10-21T17:31:17.487Z,2.33
2022-10-21T17:36:21.051Z,3.00
2022-10-21T17:41:25.636Z,2.40
2022-10-21T17:46:30.377Z,2.88
2022-10-21T17:51:33.267Z,4.30
2022-10-21T17:56:36.310Z,3.17
2022-10-21T18:01:43.418Z,2.33
2022-10-21T18:06:46.173Z,2.30
2022-10-21T18:11:48.847Z,2.88
2022-10-21T18:16:52.904Z,1.63
2022-10-21T18:21:55.624Z,2.13
2022-10-21T18:26:58.304Z,2.72
2022-10-21T18:32:02.460Z,2.42
2022-10-21T18:37:07.818Z,2.83
2022-10-21T18:42:10.879Z,2.13
2022-10-21T18:47:24.324Z,2.10
2022-10-21T18:52:27.184Z,3.37
2022-10-21T18:57:30.073Z,2.77
2022-10-21T19:02:34.178Z,2.47
2022-10-21T19:07:37.123Z,3.38
2022-10-21T19:12:40.573Z,2.10
2022-10-21T19:17:46.396Z,2.00
2022-10-21T19:22:50.598Z,1.25
2022-10-21T19:27:53.521Z,1.60
2022-10-21T19:33:04.449Z,1.27
2022-10-21T19:38:11.394Z,1.50
2022-10-21T19:43:18.261Z,1.67
2022-10-21T19:48:23.233Z,1.27
2022-10-21T19:53:26.343Z,3.25
2022-10-21T19:58:29.476Z,1.85
2022-10-21T20:08:38.569Z,1.75
2022-10-21T20:13:42.056Z,1.67
2022-10-21T20:18:45.334Z,1.00
2022-10-21T20:23:49.887Z,1.23
2022-10-21T20:28:52.994Z,1.15
2022-10-21T20:39:48.729Z,1.27
2022-10-21T20:44:51.409Z,1.63
2022-10-21T20:49:54.392Z,1.05
2022-10-21T20:54:58.705Z,1.10
2022-10-21T21:00:02.613Z,1.60
2022-10-21T21:05:05.842Z,1.17
2022-10-21T21:10:10.679Z,1.00
2022-10-21T21:15:14.277Z,1.23
2022-10-21T21:20:17.660Z,1.97
2022-10-21T21:25:23.676Z,1.08
2022-10-21T21:30:27.473Z,1.40
2022-10-21T21:35:30.184Z,1.23
2022-10-21T21:40:34.525Z,1.75
2022-10-21T21:45:37.263Z,2.00
2022-10-21T21:50:44.411Z,1.55
2022-10-21T21:55:48.631Z,1.60
2022-10-21T22:00:51.573Z,1.15
2022-10-21T22:05:54.233Z,1.80
2022-10-21T22:10:58.520Z,1.57
2022-10-21T22:16:01.250Z,1.83
2022-10-21T22:21:04.473Z,1.33
2022-10-21T22:26:09.861Z,0.90
2022-10-21T22:31:14.605Z,1.40
2022-10-21T22:36:17.633Z,1.33
2022-10-21T22:41:21.712Z,1.37
2022-10-21T22:46:39.664Z,1.67
2022-10-21T22:51:42.383Z,1.30
2022-10-21T22:56:46.456Z,1.10
2022-10-21T23:01:49.441Z,1.02
2022-10-21T23:07:02.181Z,1.42
2022-10-21T23:12:07.105Z,1.50
2022-10-21T23:17:10.557Z,1.40
2022-10-21T23:22:13.337Z,1.42
2022-10-21T23:27:17.506Z,1.30
2022-10-21T23:32:20.562Z,1.45
2022-10-21T23:37:23.277Z,1.42
2022-10-21T23:42:27.399Z,1.50
2022-10-21T23:47:30.166Z,1.45
2022-10-21T23:52:33.031Z,1.13
2022-10-21T23:57:37.173Z,2.17
